createdAt,value
2019-05-06T00:01:24.082Z,23.00
2019-05-06T00:03:50.984Z,23.10
2019-05-06T00:06:17.863Z,22.90
2019-05-06T00:08:44.694Z,22.70
2019-05-06T00:11:11.438Z,23.00
2019-05-06T00:13:38.373Z,22.30
2019-05-06T00:16:05.117Z,22.40
2019-05-06T00:18:33.950Z,22.60
2019-05-06T00:21:00.334Z,22.80
2019-05-06T00:23:27.180Z,22.90
2019-05-06T00:25:54.022Z,22.90
2019-05-06T00:28:20.859Z,22.60
2019-05-06T00:30:47.800Z,22.90
2019-05-06T00:33:14.545Z,22.90
2019-05-06T00:35:41.588Z,22.60
2019-05-06T00:38:08.433Z,22.70
2019-05-06T00:40:35.275Z,22.60
2019-05-06T00:43:02.112Z,22.50
2019-05-06T00:45:28.954Z,22.70
2019-05-06T00:47:55.697Z,22.10
2019-05-06T00:50:23.935Z,22.20
2019-05-06T00:55:36.419Z,22.30
2019-05-06T00:58:04.030Z,22.20
2019-05-06T01:00:31.101Z,21.90
2019-05-06T01:02:57.896Z,22.10
2019-05-06T01:05:24.682Z,21.80
2019-05-06T01:07:51.524Z,21.90
2019-05-06T01:10:18.370Z,22.00
2019-05-06T01:12:45.206Z,21.80
2019-05-06T01:15:14.207Z,21.30
2019-05-06T01:17:40.639Z,20.80
2019-05-06T01:20:07.344Z,20.90
2019-05-06T01:22:34.213Z,20.70
2019-05-06T01:25:01.363Z,20.40
2019-05-06T01:27:28.122Z,20.30
2019-05-06T01:29:55.018Z,20.30
2019-05-06T01:32:23.666Z,20.70
2019-05-06T01:34:50.515Z,20.40
2019-05-06T01:37:17.326Z,20.40
2019-05-06T01:39:44.153Z,20.50
2019-05-06T01:42:11.095Z,20.60
2019-05-06T01:44:37.936Z,20.20
2019-05-06T01:47:05.090Z,19.80
2019-05-06T01:49:33.856Z,20.70
2019-05-06T01:52:00.309Z,20.30
2019-05-06T01:54:27.103Z,20.40
2019-05-06T01:56:53.895Z,20.00
2019-05-06T01:59:20.828Z,20.20
2019-05-06T02:01:57.389Z,20.40
2019-05-06T02:04:16.148Z,20.30
2019-05-06T02:06:43.714Z,20.30
2019-05-06T02:09:11.063Z,20.80
2019-05-06T02:11:37.803Z,20.60
2019-05-06T02:14:04.906Z,20.70
2019-05-06T02:16:34.110Z,20.50
2019-05-06T02:19:00.480Z,20.60
2019-05-06T02:21:27.224Z,20.20
2019-05-06T02:23:54.069Z,20.70
2019-05-06T02:26:20.795Z,20.50
2019-05-06T02:28:47.566Z,20.70
2019-05-06T02:31:14.838Z,20.90
2019-05-06T02:33:44.619Z,20.80
2019-05-06T02:36:10.423Z,21.00
2019-05-06T02:38:46.720Z,21.10
2019-05-06T02:41:05.740Z,21.10
2019-05-06T02:43:34.372Z,21.50
2019-05-06T02:46:03.985Z,21.20
2019-05-06T02:48:29.745Z,21.10
2019-05-06T02:50:56.486Z,20.90
2019-05-06T02:53:23.690Z,21.20
2019-05-06T02:55:52.907Z,21.10
2019-05-06T02:58:18.792Z,20.90
2019-05-06T03:00:45.594Z,21.00
2019-05-06T03:03:14.091Z,21.30
2019-05-06T03:05:44.020Z,21.40
2019-05-06T03:08:13.145Z,21.00
2019-05-06T03:10:38.193Z,21.10
2019-05-06T03:13:04.925Z,21.00
2019-05-06T03:15:34.200Z,21.30
2019-05-06T03:18:03.017Z,21.50
2019-05-06T03:20:28.723Z,21.70
2019-05-06T03:22:55.565Z,21.70
2019-05-06T03:25:24.067Z,21.00
2019-05-06T03:27:53.255Z,21.20
2019-05-06T03:30:19.381Z,21.40
2019-05-06T03:33:21.535Z,21.50
2019-05-06T03:35:33.338Z,21.60
2019-05-06T03:37:43.986Z,21.60
2019-05-06T03:40:13.666Z,21.70
2019-05-06T03:42:39.310Z,21.50
2019-05-06T03:45:06.154Z,21.60
2019-05-06T03:47:34.547Z,21.50
2019-05-06T03:50:04.727Z,21.40
2019-05-06T03:52:29.861Z,21.10
2019-05-06T03:54:56.594Z,21.80
2019-05-06T03:57:23.496Z,21.90
2019-05-06T03:59:52.927Z,21.40
2019-05-06T04:02:18.761Z,21.60
2019-05-06T04:04:45.573Z,21.50
2019-05-06T04:07:13.930Z,21.40
2019-05-06T04:09:43.955Z,21.60
2019-05-06T04:12:09.295Z,21.40
2019-05-06T04:14:36.085Z,21.10
2019-05-06T04:17:03.422Z,21.00
2019-05-06T04:19:33.131Z,20.50
2019-05-06T04:21:58.911Z,21.20
2019-05-06T04:24:25.759Z,20.90
2019-05-06T04:26:53.451Z,20.80
2019-05-06T04:29:23.751Z,21.00
2019-05-06T04:31:50.173Z,21.70
2019-05-06T04:34:19.596Z,20.80
2019-05-06T04:36:45.359Z,20.70
2019-05-06T04:39:13.135Z,20.50
2019-05-06T04:41:43.063Z,20.30
2019-05-06T04:44:08.577Z,20.20
2019-05-06T04:46:35.318Z,20.40
2019-05-06T04:49:04.091Z,20.00
2019-05-06T04:51:32.834Z,20.40
2019-05-06T04:53:59.541Z,20.50
2019-05-06T04:56:26.373Z,19.90
2019-05-06T04:58:54.008Z,20.10
2019-05-06T05:01:23.131Z,19.80
2019-05-06T05:03:49.354Z,20.00
2019-05-06T05:06:16.195Z,19.80
2019-05-06T05:08:43.036Z,19.60
2019-05-06T05:11:09.883Z,19.30
2019-05-06T05:13:36.721Z,19.10
2019-05-06T05:16:03.569Z,19.00
2019-05-06T05:18:32.088Z,18.70
2019-05-06T05:20:59.245Z,19.00
2019-05-06T05:23:26.037Z,18.50
2019-05-06T05:25:52.779Z,18.90
2019-05-06T05:28:19.629Z,18.90
2019-05-06T05:30:46.472Z,18.70
2019-05-06T05:33:13.297Z,19.00
2019-05-06T05:35:40.137Z,18.60
2019-05-06T05:38:06.979Z,18.00
2019-05-06T05:40:33.834Z,18.00
2019-05-06T05:43:02.750Z,18.20
2019-05-06T05:45:29.155Z,18.20
2019-05-06T05:47:56.190Z,18.00
2019-05-06T05:50:23.040Z,17.80
2019-05-06T05:52:51.823Z,17.80
2019-05-06T05:55:18.367Z,17.60
2019-05-06T05:57:45.806Z,17.70
2019-05-06T06:00:12.888Z,17.90
2019-05-06T06:02:39.908Z,17.80
2019-05-06T06:05:06.958Z,17.10
2019-05-06T06:07:33.910Z,17.50
2019-05-06T06:10:02.672Z,17.50
2019-05-06T06:12:29.219Z,17.50
2019-05-06T06:14:56.416Z,17.50
2019-05-06T06:17:23.311Z,18.60
2019-05-06T06:19:50.357Z,18.10
2019-05-06T06:22:17.196Z,16.70
2019-05-06T06:24:44.036Z,17.20
2019-05-06T06:27:12.548Z,17.20
2019-05-06T06:29:39.462Z,16.90
2019-05-06T06:32:06.211Z,17.20
2019-05-06T06:34:33.055Z,17.10
2019-05-06T06:37:02.466Z,17.40
2019-05-06T06:39:28.465Z,16.80
2019-05-06T06:41:55.469Z,17.20
2019-05-06T06:44:22.252Z,16.90
2019-05-06T06:46:49.204Z,16.90
2019-05-06T06:49:15.990Z,17.10
2019-05-06T06:51:42.783Z,16.80
2019-05-06T06:54:12.138Z,16.20
2019-05-06T06:56:38.061Z,16.30
2019-05-06T06:59:04.835Z,16.20
2019-05-06T07:01:33.194Z,16.00
2019-05-06T07:04:03.199Z,16.20
2019-05-06T07:06:28.801Z,16.00
2019-05-06T07:08:55.593Z,16.40
2019-05-06T07:11:22.611Z,17.60
2019-05-06T07:13:49.471Z,16.40
2019-05-06T07:16:16.314Z,16.50
2019-05-06T07:18:43.155Z,16.20
2019-05-06T07:21:10.002Z,16.40
2019-05-06T07:23:36.847Z,16.30
2019-05-06T07:26:03.680Z,16.90
2019-05-06T07:28:32.443Z,16.10
2019-05-06T07:31:14.985Z,16.00
2019-05-06T07:33:27.389Z,15.90
2019-05-06T07:35:54.220Z,16.40
2019-05-06T07:38:23.066Z,16.60
2019-05-06T07:40:49.444Z,16.10
2019-05-06T07:43:16.285Z,15.90
2019-05-06T07:45:43.023Z,16.50
2019-05-06T07:48:09.863Z,16.30
2019-05-06T07:50:36.704Z,15.60
2019-05-06T07:53:03.550Z,15.60
2019-05-06T07:55:32.633Z,15.60
2019-05-06T07:57:58.927Z,15.70
2019-05-06T08:00:25.713Z,15.90
2019-05-06T08:02:52.764Z,15.30
2019-05-06T08:05:19.597Z,14.50
2019-05-06T08:07:46.440Z,14.80
2019-05-06T08:10:13.660Z,14.70
2019-05-06T08:12:42.733Z,14.70
2019-05-06T08:15:09.123Z,14.60
2019-05-06T08:17:35.956Z,14.60
2019-05-06T08:20:02.800Z,14.10
2019-05-06T08:22:29.654Z,14.70
2019-05-06T08:24:56.483Z,14.40
2019-05-06T08:27:23.328Z,14.20
2019-05-06T08:29:50.062Z,13.50
2019-05-06T08:32:17.166Z,14.00
2019-05-06T08:34:43.952Z,14.30
2019-05-06T08:37:12.092Z,14.00
2019-05-06T08:39:39.068Z,14.30
2019-05-06T08:42:05.907Z,14.20
2019-05-06T08:44:32.651Z,14.60
2019-05-06T08:46:59.494Z,14.60
2019-05-06T08:49:26.228Z,13.80
2019-05-06T08:51:53.251Z,13.60
2019-05-06T08:54:19.972Z,13.50
2019-05-06T08:56:46.765Z,13.60
2019-05-06T08:59:14.006Z,13.90
2019-05-06T09:01:42.437Z,13.20
2019-05-06T09:04:13.714Z,13.80
2019-05-06T09:06:38.013Z,13.70
2019-05-06T09:09:04.857Z,13.50
2019-05-06T09:11:32.202Z,12.80
2019-05-06T09:13:59.051Z,13.50
2019-05-06T09:16:25.844Z,13.40
2019-05-06T09:18:53.287Z,13.40
2019-05-06T09:21:22.417Z,12.60
2019-05-06T09:23:48.667Z,12.70
2019-05-06T09:26:15.516Z,13.00
2019-05-06T09:28:42.802Z,12.40
2019-05-06T09:31:09.798Z,13.00
2019-05-06T09:33:36.656Z,12.80
2019-05-06T09:36:03.528Z,12.80
2019-05-06T09:38:32.103Z,12.80
2019-05-06T09:40:58.825Z,13.50
2019-05-06T09:43:25.860Z,13.40
2019-05-06T09:45:53.043Z,14.00
2019-05-06T09:48:19.759Z,13.90
2019-05-06T09:50:46.789Z,14.00
2019-05-06T09:53:14.059Z,13.50
2019-05-06T09:55:42.882Z,13.90
2019-05-06T09:58:09.267Z,13.70
2019-05-06T10:00:36.214Z,13.90
2019-05-06T10:03:03.429Z,14.10
2019-05-06T10:05:30.690Z,13.70
2019-05-06T10:07:57.563Z,13.10
2019-05-06T10:10:24.294Z,13.90
2019-05-06T10:12:53.014Z,13.90
2019-05-06T10:15:19.513Z,13.90
2019-05-06T10:17:46.378Z,14.10
2019-05-06T10:20:13.403Z,14.30
2019-05-06T10:22:42.904Z,14.40
2019-05-06T10:25:09.031Z,14.60
2019-05-06T10:27:35.871Z,14.60
2019-05-06T10:30:03.220Z,14.40
2019-05-06T10:32:30.236Z,14.30
2019-05-06T10:34:57.012Z,14.10
2019-05-06T10:37:23.859Z,14.30
2019-05-06T10:39:52.211Z,14.50
2019-05-06T10:42:19.146Z,14.40
2019-05-06T10:44:46.017Z,14.90
2019-05-06T10:47:12.753Z,15.20
2019-05-06T10:49:41.910Z,14.80
2019-05-06T10:52:08.183Z,14.60
2019-05-06T10:54:35.021Z,14.40
2019-05-06T10:57:02.326Z,14.30
2019-05-06T10:59:29.474Z,13.90
2019-05-06T11:01:56.263Z,14.20
2019-05-06T11:04:23.163Z,14.60
2019-05-06T11:06:52.382Z,14.40
2019-05-06T11:09:18.528Z,13.90
2019-05-06T11:11:45.276Z,14.50
2019-05-06T11:14:12.895Z,14.70
2019-05-06T11:16:39.768Z,14.30
2019-05-06T11:19:06.510Z,14.20
2019-05-06T11:21:33.352Z,14.40
2019-05-06T11:24:00.197Z,14.20
2019-05-06T11:26:27.039Z,13.90
2019-05-06T11:28:53.877Z,14.10
2019-05-06T11:31:22.823Z,14.00
2019-05-06T11:33:49.198Z,13.60
2019-05-06T11:36:16.042Z,13.30
2019-05-06T11:38:43.247Z,13.50
2019-05-06T11:41:12.996Z,12.90
2019-05-06T11:43:38.724Z,13.40
2019-05-06T11:46:05.555Z,13.30
2019-05-06T11:48:32.844Z,13.40
2019-05-06T11:50:59.752Z,11.70
2019-05-06T11:53:26.602Z,12.30
2019-05-06T11:55:54.834Z,12.40
2019-05-06T11:58:22.421Z,12.10
2019-05-06T12:00:49.272Z,11.80
2019-05-06T12:03:16.213Z,11.50
2019-05-06T12:05:43.079Z,11.90
2019-05-06T12:08:15.212Z,12.10
2019-05-06T12:10:39.507Z,11.10
2019-05-06T12:13:06.359Z,11.00
2019-05-06T12:15:33.192Z,11.30
2019-05-06T12:18:00.029Z,11.00
2019-05-06T12:20:26.867Z,11.20
2019-05-06T12:22:53.712Z,11.80
2019-05-06T12:25:23.570Z,12.10
2019-05-06T12:27:49.035Z,12.40
2019-05-06T12:30:15.877Z,12.10
2019-05-06T12:32:43.397Z,12.60
2019-05-06T12:35:12.471Z,12.50
2019-05-06T12:37:39.074Z,12.50
2019-05-06T12:40:05.911Z,12.60
2019-05-06T12:42:33.248Z,12.70
2019-05-06T12:45:03.294Z,13.50
2019-05-06T12:47:28.579Z,13.30
2019-05-06T12:49:55.439Z,13.30
2019-05-06T12:52:23.156Z,13.40
2019-05-06T12:54:50.196Z,12.80
2019-05-06T12:57:17.081Z,12.60
2019-05-06T12:59:43.821Z,12.50
2019-05-06T13:02:12.953Z,12.40
2019-05-06T13:04:54.168Z,12.30
2019-05-06T13:07:07.729Z,12.70
2019-05-06T13:09:34.518Z,12.70
2019-05-06T13:12:03.823Z,12.80
2019-05-06T13:14:30.087Z,12.80
2019-05-06T13:16:56.926Z,13.20
2019-05-06T13:19:23.875Z,13.40
2019-05-06T13:21:50.865Z,13.30
2019-05-06T13:24:17.664Z,13.90
2019-05-06T13:26:44.510Z,13.80
2019-05-06T13:29:12.990Z,13.70
2019-05-06T13:31:39.926Z,13.30
2019-05-06T13:34:07.028Z,13.50
2019-05-06T13:36:33.921Z,13.50
2019-05-06T13:39:10.717Z,13.60
2019-05-06T13:41:29.246Z,13.30
2019-05-06T13:43:56.075Z,12.60
2019-05-06T13:46:23.605Z,13.00
2019-05-06T13:48:53.063Z,12.40
2019-05-06T13:51:19.070Z,12.30
2019-05-06T13:53:46.390Z,12.50
2019-05-06T13:56:13.592Z,12.50
2019-05-06T13:58:42.806Z,12.70
2019-05-06T14:01:08.930Z,12.70
2019-05-06T14:03:35.764Z,12.50
2019-05-06T14:06:03.088Z,12.70
2019-05-06T14:08:30.128Z,12.60
2019-05-06T14:10:59.961Z,12.20
2019-05-06T14:13:25.446Z,12.20
2019-05-06T14:15:52.819Z,12.50
2019-05-06T14:18:19.745Z,12.60
2019-05-06T14:20:46.585Z,12.60
2019-05-06T14:23:13.431Z,13.00
2019-05-06T14:25:40.290Z,13.10
2019-05-06T14:28:07.108Z,13.60
2019-05-06T14:30:33.954Z,12.80
2019-05-06T14:33:03.119Z,12.30
2019-05-06T14:35:29.308Z,12.30
2019-05-06T14:37:56.330Z,12.60
2019-05-06T14:40:23.168Z,13.40
2019-05-06T14:42:49.899Z,12.70
2019-05-06T14:45:16.642Z,12.50
2019-05-06T14:47:43.872Z,12.80
2019-05-06T14:50:14.443Z,12.50
2019-05-06T14:52:39.115Z,12.40
2019-05-06T14:55:05.927Z,12.70
2019-05-06T14:57:32.705Z,12.60
2019-05-06T14:59:59.535Z,12.60
2019-05-06T15:02:27.204Z,12.80
2019-05-06T15:04:54.245Z,12.80
2019-05-06T15:07:22.043Z,12.60
2019-05-06T15:09:58.413Z,13.00
2019-05-06T15:12:17.757Z,13.30
2019-05-06T15:14:44.693Z,13.10
2019-05-06T15:17:11.490Z,13.10
2019-05-06T15:19:38.265Z,12.60
2019-05-06T15:22:07.240Z,12.90
2019-05-06T15:24:34.311Z,13.50
2019-05-06T15:27:02.705Z,13.10
2019-05-06T15:29:29.710Z,13.00
2019-05-06T15:31:56.533Z,13.60
2019-05-06T15:34:23.316Z,13.10
2019-05-06T15:36:52.797Z,13.70
2019-05-06T15:39:18.742Z,13.40
2019-05-06T15:41:45.969Z,13.20
2019-05-06T15:44:14.771Z,13.70
2019-05-06T15:46:43.016Z,13.90
2019-05-06T15:49:10.170Z,13.80
2019-05-06T15:51:36.942Z,14.10
2019-05-06T15:54:03.769Z,14.20
2019-05-06T15:56:32.754Z,14.00
2019-05-06T15:58:59.103Z,13.70
2019-05-06T16:01:25.944Z,13.70
2019-05-06T16:03:53.423Z,14.10
2019-05-06T16:06:20.338Z,14.10
2019-05-06T16:08:47.181Z,14.60
2019-05-06T16:11:14.217Z,14.30
2019-05-06T16:13:42.173Z,14.10
2019-05-06T16:16:09.817Z,14.10
2019-05-06T16:18:36.800Z,14.40
2019-05-06T16:21:03.647Z,14.30
2019-05-06T16:23:32.747Z,14.10
2019-05-06T16:25:59.331Z,14.30
2019-05-06T16:28:26.127Z,13.90
2019-05-06T16:30:53.608Z,13.90
2019-05-06T16:33:22.048Z,14.00
2019-05-06T16:35:48.988Z,13.60
2019-05-06T16:38:15.857Z,13.90
2019-05-06T16:40:45.285Z,13.90
2019-05-06T16:43:12.579Z,14.20
2019-05-06T16:45:39.759Z,13.60
2019-05-06T16:48:06.578Z,13.90
2019-05-06T16:50:33.426Z,14.40
2019-05-06T16:53:02.602Z,14.00
2019-05-06T16:55:28.906Z,14.20
2019-05-06T16:57:55.650Z,13.70
2019-05-06T17:00:22.834Z,14.40
2019-05-06T17:02:57.051Z,14.20
2019-05-06T17:05:18.055Z,13.80
2019-05-06T17:07:45.141Z,14.30
2019-05-06T17:10:12.148Z,14.10
2019-05-06T17:12:38.992Z,14.00
2019-05-06T17:15:05.829Z,14.40
2019-05-06T17:17:40.777Z,14.40
2019-05-06T17:20:03.111Z,14.20
2019-05-06T17:22:29.606Z,13.70
2019-05-06T17:24:57.411Z,13.90
2019-05-06T17:27:24.162Z,14.30
2019-05-06T17:29:50.965Z,14.20
2019-05-06T17:32:17.733Z,14.50
2019-05-06T17:34:44.558Z,14.90
2019-05-06T17:37:12.464Z,14.70
2019-05-06T17:39:42.363Z,14.30
2019-05-06T17:42:08.971Z,15.00
2019-05-06T17:44:35.780Z,14.70
2019-05-06T17:47:02.763Z,15.00
2019-05-06T17:49:30.693Z,15.40
2019-05-06T17:51:58.373Z,15.10
2019-05-06T17:54:25.996Z,15.20
2019-05-06T17:56:53.064Z,15.10
2019-05-06T17:59:19.857Z,15.30
2019-05-06T18:01:46.680Z,15.80
2019-05-06T18:04:13.520Z,15.60
2019-05-06T18:06:42.469Z,15.80
2019-05-06T18:09:09.048Z,16.10
2019-05-06T18:11:35.986Z,16.50
2019-05-06T18:14:05.238Z,16.60
2019-05-06T18:16:33.449Z,16.80
2019-05-06T18:19:03.147Z,17.40
2019-05-06T18:21:31.875Z,17.10
2019-05-06T18:23:59.008Z,17.10
2019-05-06T18:26:26.056Z,17.70
2019-05-06T18:28:52.930Z,17.40
2019-05-06T18:31:21.979Z,17.50
2019-05-06T18:33:49.384Z,17.40
2019-05-06T18:36:17.051Z,17.60
2019-05-06T18:38:43.942Z,17.70
2019-05-06T18:41:11.994Z,17.70
2019-05-06T18:43:39.171Z,17.90
2019-05-06T18:46:06.011Z,18.30
2019-05-06T18:48:35.262Z,18.00
2019-05-06T18:51:03.015Z,17.80
2019-05-06T18:53:32.538Z,18.10
2019-05-06T18:55:58.987Z,18.30
2019-05-06T18:58:25.842Z,18.40
2019-05-06T19:00:53.150Z,18.50
2019-05-06T19:03:19.853Z,18.40
2019-05-06T19:05:46.895Z,18.20
2019-05-06T19:08:13.724Z,18.60
2019-05-06T19:10:42.439Z,19.10
2019-05-06T19:13:09.048Z,18.70
2019-05-06T19:15:35.883Z,18.70
2019-05-06T19:18:02.829Z,18.60
2019-05-06T19:20:30.248Z,18.80
2019-05-06T19:22:57.033Z,19.00
2019-05-06T19:25:26.447Z,18.80
2019-05-06T19:27:53.159Z,19.00
2019-05-06T19:30:22.327Z,19.30
2019-05-06T19:32:48.692Z,19.50
2019-05-06T19:35:15.537Z,19.60
2019-05-06T19:37:42.703Z,19.90
2019-05-06T19:40:09.534Z,20.00
2019-05-06T19:42:46.223Z,19.60
2019-05-06T19:45:04.763Z,20.20
2019-05-06T19:47:31.977Z,19.50
2019-05-06T19:49:59.248Z,19.80
2019-05-06T19:52:26.090Z,19.80
2019-05-06T19:54:52.932Z,19.70
2019-05-06T19:57:19.779Z,19.10
2019-05-06T19:59:46.508Z,19.20
2019-05-06T20:02:13.356Z,19.30
2019-05-06T20:04:44.056Z,19.20
2019-05-06T20:07:08.782Z,19.00
2019-05-06T20:09:35.624Z,19.00
2019-05-06T20:12:02.914Z,19.20
2019-05-06T20:14:35.142Z,19.20
2019-05-06T20:17:03.753Z,18.90
2019-05-06T20:19:31.755Z,19.20
2019-05-06T20:21:58.866Z,19.10
2019-05-06T20:24:25.630Z,19.00
2019-05-06T20:26:52.826Z,18.80
2019-05-06T20:29:19.674Z,18.90
2019-05-06T20:31:46.567Z,18.70
2019-05-06T20:34:13.878Z,18.70
2019-05-06T20:36:42.086Z,18.80
2019-05-06T20:39:09.110Z,18.50
2019-05-06T20:41:36.159Z,18.60
2019-05-06T20:44:02.970Z,18.50
2019-05-06T20:46:32.185Z,18.10
2019-05-06T20:48:58.627Z,18.20
2019-05-06T20:51:25.646Z,18.60
2019-05-06T20:53:52.614Z,18.60
2019-05-06T20:56:21.842Z,18.70
2019-05-06T20:58:48.147Z,18.50
2019-05-06T21:01:15.265Z,19.20
2019-05-06T21:03:42.525Z,18.70
2019-05-06T21:06:09.357Z,18.60
2019-05-06T21:08:36.199Z,18.70
2019-05-06T21:11:04.079Z,18.40
2019-05-06T21:13:33.055Z,18.80
2019-05-06T21:15:59.694Z,18.20
2019-05-06T21:18:26.534Z,18.50
2019-05-06T21:20:53.277Z,18.80
2019-05-06T21:23:22.530Z,18.50
2019-05-06T21:25:48.609Z,18.30
2019-05-06T21:28:15.547Z,18.20
2019-05-06T21:30:42.965Z,18.70
2019-05-06T21:33:12.245Z,18.20
2019-05-06T21:35:38.736Z,18.50
2019-05-06T21:38:05.569Z,18.50
2019-05-06T21:40:32.517Z,18.80
2019-05-06T21:42:59.334Z,18.50
2019-05-06T21:45:26.094Z,18.90
2019-05-06T21:47:53.138Z,18.50
2019-05-06T21:50:22.677Z,18.60
2019-05-06T21:52:49.207Z,18.50
2019-05-06T21:55:16.327Z,18.40
2019-05-06T21:57:43.075Z,18.50
2019-05-06T22:00:09.908Z,18.50
2019-05-06T22:02:36.803Z,18.50
2019-05-06T22:05:03.802Z,18.70
2019-05-06T22:07:35.626Z,18.50
2019-05-06T22:09:59.424Z,18.50
2019-05-06T22:12:26.271Z,18.50
2019-05-06T22:14:53.093Z,18.40
2019-05-06T22:17:22.447Z,18.60
2019-05-06T22:19:48.638Z,18.50
2019-05-06T22:22:15.541Z,18.50
2019-05-06T22:24:42.777Z,18.90
2019-05-06T22:27:09.674Z,18.50
2019-05-06T22:29:36.523Z,18.70
2019-05-06T22:32:03.357Z,18.80
2019-05-06T22:34:30.102Z,18.50
2019-05-06T22:36:56.849Z,18.60
2019-05-06T22:39:24.186Z,18.60
2019-05-06T22:41:51.993Z,19.20
2019-05-06T22:44:19.103Z,19.10
2019-05-06T22:46:45.940Z,19.00
2019-05-06T22:49:13.413Z,18.90
2019-05-06T22:51:42.491Z,18.90
2019-05-06T22:54:09.026Z,18.90
2019-05-06T22:56:35.959Z,18.90
2019-05-06T22:59:03.411Z,19.20
2019-05-06T23:01:32.508Z,19.60
2019-05-06T23:03:59.392Z,19.20
2019-05-06T23:06:26.419Z,19.40
2019-05-06T23:08:53.556Z,19.40
2019-05-06T23:11:22.003Z,19.20
2019-05-06T23:13:48.718Z,19.40
2019-05-06T23:16:15.521Z,19.30
2019-05-06T23:18:42.939Z,20.00
2019-05-06T23:21:11.773Z,19.40
2019-05-06T23:23:38.497Z,19.30
2019-05-06T23:26:05.355Z,19.50
2019-05-06T23:28:32.190Z,19.50
2019-05-06T23:30:59.034Z,19.30
2019-05-06T23:33:25.871Z,19.30
2019-05-06T23:35:52.724Z,19.60
2019-05-06T23:38:19.567Z,19.60
2019-05-06T23:40:46.491Z,19.70
2019-05-06T23:43:13.332Z,19.50
2019-05-06T23:45:40.103Z,19.70
2019-05-06T23:48:06.915Z,19.20
2019-05-06T23:50:33.788Z,19.50
2019-05-06T23:53:02.774Z,19.60
2019-05-06T23:55:29.079Z,19.30
2019-05-06T23:57:55.821Z,19.50
